메인 페이지
METAR-TAF:

METAR-TAF

공항 :

푸앵타피트르 국제공항

Pointe-à-Pitre, 과들루프

위도: 16-16N, 경도: 061-31W, 고도: 11m

현재 날씨관측

예보는 29분 전, 22:00시(UTC)에 발표되었습니다.
6kt
온도 25°C
습도 79%
기압 1016 hPa
시정 10km 이상
고도 4600ft 상공 구름 조금
고도 7600ft 상공 구름 보통

METAR: TFFR 202200Z AUTO 10006KT 9999 FEW046 SCT076 25/21 Q1016 TEMPO 4000 SHRA SCT015TCU

시각: 18:29 (22:29 UTC)

예보

예보는 5 시간 29분 전, 17:00시(UTC)에 발표되었습니다.
예보 대상 시간: 20일 18시부터 21일 18시까지 (UTC)
8kt
시정 10km 이상
고도 3000ft 상공 구름 보통
확률 30% :
일시적
20일 18시부터 20일 24시까지 (UTC)
시정: 4000m
고도 1500ft 상공 구름 보통, 타워링 적운.
소나기
일시적
21일 00시부터 21일 12시까지 (UTC)
여러 방향의 바람 2kt

TAF: TFFR 201700Z 2018/2118 10008KT 9999 SCT030 PROB30 TEMPO 2018/2024 4000 SHRA SCT015TCU TEMPO 2100/2112 VRB02KT

4,000개 이상의 공항 관측 자료 및 예보 (METAR 및 TAF 보고).

지도상에서 검색 가능한 기상관측소가 노란 점과 빨간 점으로 표시되어 있습니다.

기상관측소 명을 보려면 표시 위로 마우스를 이동하세요.

날씨 관측과 예보를 보려면 클릭하세요.

지도 변경 : 확대하려면 엑스 표시가 있는 녹색 버튼, 축소하려면 빼기 표시가 있는 녹색 버튼, 다음 페이지의 지도를 보려면 녹색 화살표를 클릭하세요.


METAR-TAF: